Time;durP1;ratioP1;P1;durP2;ratioP2;P2;SDS_P1;SDS_P2;PMS_P1;PMS_P2;Temp;Humidity;BMP_temperature;BMP_pressure;BME280_temperature;BME280_humidity;BME280_pressure;Samples;Min_cycle;Max_cycle;Signal;HPM_P1;HPM_P2
2023/05/09 00:00:13;;;;;;;32.10;14.90;;;;;;;3.24;61.00;100264.45;104419;1267;108843;-89
2023/05/09 00:03:04;;;;;;;29.50;17.20;;;;;;;3.22;60.88;100261.67;104340;1266;97922;-87
2023/05/09 00:05:32;;;;;;;27.90;14.80;;;;;;;3.20;60.86;100258.40;104542;1268;97972;-88
2023/05/09 00:08:00;;;;;;;27.10;15.40;;;;;;;3.17;60.95;100252.16;104414;1280;110220;-88
2023/05/09 00:10:28;;;;;;;32.90;17.40;;;;;;;3.11;61.01;100254.91;104428;1268;98048;-88
2023/05/09 00:12:57;;;;;;;29.90;18.40;;;;;;;3.10;61.09;100254.95;104418;1268;107877;-88
2023/05/09 00:15:26;;;;;;;31.10;18.30;;;;;;;3.11;61.07;100252.30;104412;1267;99166;-88
2023/05/09 00:17:53;;;;;;;33.20;19.20;;;;;;;3.07;61.37;100256.06;104432;1268;98883;-88
2023/05/09 00:20:21;;;;;;;33.30;19.40;;;;;;;3.08;61.13;100252.02;104404;1265;111351;-89
2023/05/09 00:22:49;;;;;;;31.70;18.60;;;;;;;3.08;61.18;100249.54;104434;1267;98067;-88
2023/05/09 00:25:17;;;;;;;30.80;18.00;;;;;;;3.09;61.33;100245.15;104447;1268;107973;-88
2023/05/09 00:27:45;;;;;;;32.80;17.40;;;;;;;3.07;61.25;100247.48;104438;1268;98016;-89
2023/05/09 00:30:13;;;;;;;34.30;18.10;;;;;;;3.01;61.12;100243.07;104502;1265;97932;-89
2023/05/09 00:32:41;;;;;;;31.60;17.50;;;;;;;2.93;61.33;100241.65;104430;1265;110634;-88
2023/05/09 00:35:09;;;;;;;32.60;19.00;;;;;;;2.89;61.24;100243.33;104503;1275;97937;-89
2023/05/09 00:37:37;;;;;;;33.80;19.10;;;;;;;2.90;61.57;100244.34;104418;1267;108848;-88
2023/05/09 00:40:06;;;;;;;38.80;20.60;;;;;;;2.91;61.44;100244.33;104434;1276;98001;-88
2023/05/09 00:42:34;;;;;;;34.10;18.30;;;;;;;2.89;61.25;100249.81;104452;1276;97955;-89
2023/05/09 00:45:03;;;;;;;31.40;17.80;;;;;;;2.85;61.31;100250.43;104437;1271;110671;-88
2023/05/09 00:47:30;;;;;;;34.80;20.20;;;;;;;2.80;61.52;100243.70;104333;1263;98067;-88
2023/05/09 00:49:59;;;;;;;35.40;19.50;;;;;;;2.81;61.36;100244.73;104434;1271;106794;-89
2023/05/09 00:52:27;;;;;;;36.50;20.00;;;;;;;2.84;61.42;100245.72;104414;1266;97961;-88
2023/05/09 00:54:55;;;;;;;32.70;18.00;;;;;;;2.81;61.25;100244.04;104410;1268;98884;-88
2023/05/09 00:57:23;;;;;;;34.80;19.10;;;;;;;2.76;61.71;100240.80;104361;1268;111535;-88
2023/05/09 00:59:50;;;;;;;32.40;19.10;;;;;;;2.72;61.32;100236.35;104395;1265;98036;-88
2023/05/09 01:02:19;;;;;;;35.00;18.40;;;;;;;2.69;61.54;100235.69;104391;1272;108689;-88
2023/05/09 01:04:47;;;;;;;35.70;18.90;;;;;;;2.70;61.47;100236.73;104414;1279;98026;-89
2023/05/09 01:07:25;;;;;;;32.40;16.80;;;;;;;2.73;61.55;100241.23;104504;1267;97983;-89
2023/05/09 01:10:03;;;;;;;28.90;15.90;;;;;;;2.68;61.61;100244.12;104335;1281;111149;-88
2023/05/09 01:12:45;;;;;;;31.10;16.20;;;;;;;2.66;61.80;100242.60;104557;1265;98724;-88
2023/05/09 01:15:25;;;;;;;30.50;14.80;;;;;;;2.62;61.99;100242.70;104491;1268;107671;-88
2023/05/09 01:18:03;;;;;;;31.60;17.70;;;;;;;2.61;61.98;100243.58;104590;1268;98055;-88
2023/05/09 01:20:35;;;;;;;30.00;16.40;;;;;;;2.67;62.21;100240.64;104587;1263;98067;-88
2023/05/09 01:23:29;;;;;;;28.60;14.80;;;;;;;2.68;62.01;100239.57;104404;1267;111339;-88
2023/05/09 01:26:03;;;;;;;30.70;16.40;;;;;;;2.64;62.02;100241.23;104410;1267;99274;-88
2023/05/09 01:28:38;;;;;;;30.30;14.80;;;;;;;2.64;62.20;100240.01;104418;1269;108884;-88
2023/05/09 01:31:07;;;;;;;28.10;14.40;;;;;;;2.62;62.10;100241.65;104432;1267;97961;-88
2023/05/09 01:33:39;;;;;;;27.90;14.10;;;;;;;2.57;62.31;100243.14;104409;1267;97990;-87
2023/05/09 01:36:14;;;;;;;25.50;13.60;;;;;;;2.54;62.09;100239.52;104455;1267;111453;-89
2023/05/09 01:38:43;;;;;;;25.60;13.00;;;;;;;2.51;62.02;100237.83;104431;1267;98621;-88
2023/05/09 01:41:15;;;;;;;27.70;13.40;;;;;;;2.49;62.27;100239.45;104436;1268;107446;-88
2023/05/09 01:43:46;;;;;;;26.30;12.50;;;;;;;2.49;62.39;100237.88;104393;1268;98053;-88
2023/05/09 01:46:17;;;;;;;24.10;11.60;;;;;;;2.47;62.61;100235.98;104508;1270;97957;-88
2023/05/09 01:48:45;;;;;;;25.90;12.80;;;;;;;2.45;62.11;100232.70;104485;1264;112486;-88
2023/05/09 01:51:15;;;;;;;24.10;12.00;;;;;;;2.45;62.41;100237.25;104438;1267;97981;-88
2023/05/09 01:53:45;;;;;;;23.70;11.50;;;;;;;2.44;62.48;100235.52;104437;1265;105923;-89
2023/05/09 01:56:14;;;;;;;23.50;10.90;;;;;;;2.44;62.41;100233.95;104508;1268;98031;-89
2023/05/09 01:58:44;;;;;;;22.60;10.80;;;;;;;2.42;62.52;100233.63;104473;1268;97970;-88
2023/05/09 02:01:13;;;;;;;22.30;10.10;;;;;;;2.42;62.77;100236.27;104475;1267;111275;-88
2023/05/09 02:03:43;;;;;;;22.30;11.00;;;;;;;2.41;62.56;100239.25;104458;1267;98080;-88
2023/05/09 02:06:14;;;;;;;24.30;9.90;;;;;;;2.41;62.68;100232.80;104425;1268;106737;-88
2023/05/09 02:08:43;;;;;;;20.30;11.00;;;;;;;2.44;62.48;100232.73;104429;1267;97999;-88
2023/05/09 02:11:10;;;;;;;22.60;9.70;;;;;;;2.45;62.86;100230.59;104424;1264;97966;-89
2023/05/09 02:13:38;;;;;;;21.00;11.20;;;;;;;2.44;62.50;100228.86;104463;1268;111536;-88
2023/05/09 02:16:06;;;;;;;20.80;10.00;;;;;;;2.45;62.87;100227.08;104442;1268;97953;-88
2023/05/09 02:18:36;;;;;;;19.30;9.00;;;;;;;2.44;62.86;100224.66;104406;1264;107717;-88
2023/05/09 02:21:04;;;;;;;24.10;10.10;;;;;;;2.44;62.72;100225.02;104503;1268;98049;-88
2023/05/09 02:23:33;;;;;;;20.60;10.00;;;;;;;2.40;62.75;100223.70;104411;1265;97954;-89
2023/05/09 02:26:02;;;;;;;21.30;10.50;;;;;;;2.37;62.82;100227.96;104516;1276;111481;-88
2023/05/09 02:28:30;;;;;;;18.70;9.00;;;;;;;2.33;62.70;100224.87;104455;1279;99311;-89
2023/05/09 02:31:00;;;;;;;20.50;9.60;;;;;;;2.32;62.95;100223.86;104428;1267;107841;-88
2023/05/09 02:33:30;;;;;;;20.30;10.40;;;;;;;2.31;63.24;100226.14;104430;1267;97982;-88
2023/05/09 02:35:59;;;;;;;21.60;10.60;;;;;;;2.31;63.32;100222.84;104439;1264;97964;-87
2023/05/09 02:38:27;;;;;;;21.00;10.10;;;;;;;2.34;62.99;100227.14;104494;1267;110388;-88
2023/05/09 02:40:55;;;;;;;20.60;10.00;;;;;;;2.38;63.10;100222.16;104403;1268;99159;-88
2023/05/09 02:43:23;;;;;;;22.40;10.30;;;;;;;2.40;63.17;100222.48;104465;1267;108899;-88
2023/05/09 02:45:50;;;;;;;22.40;10.10;;;;;;;2.41;63.27;100215.10;104412;1267;97970;-89
2023/05/09 02:48:19;;;;;;;23.00;9.40;;;;;;;2.37;63.29;100216.76;104517;1268;97933;-89
2023/05/09 02:50:46;;;;;;;22.80;9.80;;;;;;;2.36;63.50;100216.25;104377;1264;109856;-88
2023/05/09 02:53:14;;;;;;;21.30;9.70;;;;;;;2.38;63.17;100215.50;104526;1264;97950;-88
2023/05/09 02:55:42;;;;;;;20.80;9.40;;;;;;;2.39;63.07;100218.30;104403;1265;108805;-88
2023/05/09 02:58:10;;;;;;;21.80;10.00;;;;;;;2.38;63.45;100220.41;104398;1267;98027;-88
2023/05/09 03:00:42;;;;;;;20.20;9.70;;;;;;;2.39;63.61;100220.41;104412;1267;97985;-88
2023/05/09 03:03:10;;;;;;;22.60;10.60;;;;;;;2.35;63.37;100217.66;104387;1267;110260;-87
2023/05/09 03:05:38;;;;;;;20.20;9.50;;;;;;;2.36;63.47;100220.10;104391;1267;97973;-88
2023/05/09 03:08:05;;;;;;;21.70;11.00;;;;;;;2.37;63.35;100221.48;104424;1280;107696;-89
2023/05/09 03:10:33;;;;;;;22.60;10.60;;;;;;;2.37;63.32;100221.47;104401;1270;98076;-88
2023/05/09 03:13:01;;;;;;;24.00;10.00;;;;;;;2.44;63.49;100219.06;104451;1264;98544;-88
2023/05/09 03:15:29;;;;;;;23.80;11.10;;;;;;;2.46;63.37;100216.05;104354;1271;112425;-87
2023/05/09 03:17:57;;;;;;;20.20;10.40;;;;;;;2.47;63.68;100218.98;104371;1267;98035;-89
2023/05/09 03:20:26;;;;;;;24.00;11.90;;;;;;;2.49;63.50;100216.69;104399;1267;106903;-88
2023/05/09 03:22:54;;;;;;;23.40;11.00;;;;;;;2.58;63.65;100218.77;104483;1276;97976;-88
2023/05/09 03:25:22;;;;;;;23.70;11.30;;;;;;;2.62;63.49;100221.14;104395;1268;97958;-88
2023/05/09 03:27:50;;;;;;;22.10;10.20;;;;;;;2.61;63.65;100223.09;104510;1262;111657;-88
2023/05/09 03:30:18;;;;;;;22.90;10.50;;;;;;;2.61;63.75;100224.50;104380;1269;98088;-88
2023/05/09 03:32:46;;;;;;;22.20;11.10;;;;;;;2.63;63.68;100226.73;104389;1267;107148;-89
2023/05/09 03:35:14;;;;;;;23.80;11.10;;;;;;;2.72;63.77;100227.93;104487;1268;99244;-88
2023/05/09 03:37:42;;;;;;;21.80;11.10;;;;;;;2.77;63.67;100227.30;105017;1264;97949;-89
2023/05/09 03:40:10;;;;;;;27.60;13.10;;;;;;;2.76;63.97;100224.87;105036;1264;111475;-89
2023/05/09 03:42:37;;;;;;;24.80;12.70;;;;;;;2.79;63.99;100229.36;105034;1267;97974;-88
2023/05/09 03:45:06;;;;;;;24.50;12.30;;;;;;;2.85;64.04;100230.46;104975;1268;108056;-88
2023/05/09 03:47:33;;;;;;;23.90;11.20;;;;;;;2.92;64.02;100233.09;104965;1267;97934;-88
2023/05/09 03:50:02;;;;;;;22.90;11.70;;;;;;;2.97;63.91;100230.36;105243;1267;97964;-88
2023/05/09 03:52:30;;;;;;;24.50;12.60;;;;;;;3.03;64.23;100229.35;105066;1268;112533;-88
2023/05/09 03:54:58;;;;;;;23.70;12.00;;;;;;;3.09;63.93;100232.71;105045;1269;97974;-88
2023/05/09 03:57:26;;;;;;;32.70;12.70;;;;;;;3.12;63.96;100234.39;105059;1264;108873;-88
2023/05/09 03:59:53;;;;;;;23.40;11.70;;;;;;;3.17;64.22;100235.67;105105;1267;98502;-88
2023/05/09 04:02:22;;;;;;;26.00;13.20;;;;;;;3.21;64.38;100236.65;105079;1264;98306;-89
2023/05/09 04:04:51;;;;;;;26.00;13.70;;;;;;;3.29;64.26;100236.46;105247;1268;111433;-88
2023/05/09 04:07:19;;;;;;;28.30;13.60;;;;;;;3.36;64.19;100234.20;105041;1264;97983;-88
2023/05/09 04:09:48;;;;;;;31.00;13.20;;;;;;;3.41;64.12;100233.89;104955;1263;108966;-89
2023/05/09 04:12:16;;;;;;;24.40;12.30;;;;;;;3.46;64.70;100235.38;104970;1270;98064;-88
2023/05/09 04:14:44;;;;;;;25.90;13.50;;;;;;;3.48;64.74;100235.98;104631;1267;97984;-89
2023/05/09 04:17:16;;;;;;;26.10;12.80;;;;;;;3.52;64.43;100234.49;104458;1264;112530;-88
2023/05/09 04:19:44;;;;;;;27.00;12.60;;;;;;;3.58;64.73;100235.59;104460;1269;99288;-88
2023/05/09 04:22:12;;;;;;;27.50;13.60;;;;;;;3.62;64.66;100232.34;104410;1265;107992;-87
2023/05/09 04:24:40;;;;;;;27.60;12.70;;;;;;;3.64;64.23;100233.70;104394;1267;97986;-88
2023/05/09 04:27:07;;;;;;;27.80;13.20;;;;;;;3.68;64.99;100237.43;104437;1268;98047;-88
2023/05/09 04:29:35;;;;;;;29.00;14.10;;;;;;;3.74;64.79;100239.73;104401;1269;110627;-88
2023/05/09 04:32:04;;;;;;;27.20;13.30;;;;;;;3.80;64.74;100233.98;104465;1265;98052;-87
2023/05/09 04:34:32;;;;;;;23.70;11.90;;;;;;;3.87;64.88;100237.64;104475;1271;106680;-88
2023/05/09 04:37:00;;;;;;;24.60;12.90;;;;;;;3.96;65.03;100240.39;104399;1282;97968;-88
2023/05/09 04:39:29;;;;;;;25.30;12.90;;;;;;;4.04;65.02;100241.23;104364;1269;99298;-88
2023/05/09 04:41:57;;;;;;;24.10;13.60;;;;;;;4.14;65.04;100239.91;104374;1264;110911;-88
2023/05/09 04:44:25;;;;;;;25.90;13.30;;;;;;;4.25;65.03;100239.10;104377;1265;97992;-88
2023/05/09 04:46:54;;;;;;;29.10;13.70;;;;;;;4.34;65.02;100244.10;104526;1265;107877;-87
2023/05/09 04:49:22;;;;;;;28.50;13.30;;;;;;;4.42;64.91;100240.04;104661;1264;98538;-84
2023/05/09 04:51:50;;;;;;;24.10;12.50;;;;;;;4.50;65.18;100243.65;104453;1268;97963;-85
2023/05/09 04:54:18;;;;;;;26.70;13.20;;;;;;;4.58;65.23;100243.25;104372;1270;111309;-85
2023/05/09 04:56:46;;;;;;;25.90;12.70;;;;;;;4.65;65.29;100242.02;104420;1265;97887;-85
2023/05/09 04:59:17;;;;;;;27.20;14.90;;;;;;;4.72;65.17;100245.14;104334;1268;108931;-84
2023/05/09 05:01:45;;;;;;;26.70;14.10;;;;;;;4.82;65.39;100243.45;104434;1268;97956;-87
2023/05/09 05:04:13;;;;;;;29.00;13.80;;;;;;;4.91;65.40;100239.45;104430;1268;97972;-88
2023/05/09 05:06:41;;;;;;;25.40;13.40;;;;;;;5.04;65.50;100243.30;104421;1268;110553;-87
2023/05/09 05:09:09;;;;;;;26.20;12.20;;;;;;;5.13;65.53;100245.47;104323;1271;97952;-87
2023/05/09 05:11:37;;;;;;;26.80;13.60;;;;;;;5.22;65.43;100246.27;104406;1268;107898;-87
2023/05/09 05:14:05;;;;;;;26.40;13.90;;;;;;;5.31;65.53;100241.77;104387;1268;98992;-88
2023/05/09 05:16:33;;;;;;;23.70;13.30;;;;;;;5.40;65.64;100234.09;104378;1265;97993;-87
2023/05/09 05:19:02;;;;;;;28.60;14.10;;;;;;;5.47;65.42;100236.13;104444;1267;110893;-87
2023/05/09 05:21:29;;;;;;;25.80;12.80;;;;;;;5.55;65.60;100234.65;104582;1268;97968;-88
2023/05/09 05:24:00;;;;;;;25.90;14.50;;;;;;;5.61;65.42;100234.61;104532;1268;107724;-88
2023/05/09 05:26:30;;;;;;;25.40;12.70;;;;;;;5.67;65.73;100237.60;104473;1268;98961;-84
2023/05/09 05:29:00;;;;;;;23.90;12.10;;;;;;;5.73;65.78;100234.56;104503;1264;97920;-88
2023/05/09 05:31:32;;;;;;;23.80;12.80;;;;;;;5.81;65.90;100233.78;104650;1268;111300;-90
2023/05/09 05:34:00;;;;;;;24.90;12.40;;;;;;;5.89;65.85;100233.48;104597;1265;99203;-90
2023/05/09 05:36:28;;;;;;;23.10;12.40;;;;;;;5.97;65.91;100231.46;104628;1265;107653;-88
2023/05/09 05:38:55;;;;;;;25.20;11.90;;;;;;;6.06;65.99;100229.77;104645;1274;97898;-86
2023/05/09 05:41:23;;;;;;;24.90;12.50;;;;;;;6.14;65.87;100228.63;104580;1265;97934;-87
2023/05/09 05:43:51;;;;;;;25.90;12.40;;;;;;;6.21;65.78;100229.77;104645;1265;112539;-86
2023/05/09 05:46:21;;;;;;;23.70;11.30;;;;;;;6.26;65.74;100223.42;104716;1267;98077;-85
2023/05/09 05:48:49;;;;;;;24.10;12.30;;;;;;;6.32;65.87;100218.47;104594;1268;107873;-87
2023/05/09 05:51:17;;;;;;;23.80;11.70;;;;;;;6.42;66.13;100219.36;104650;1265;97960;-82
2023/05/09 05:53:45;;;;;;;20.60;11.00;;;;;;;6.53;66.13;100215.60;104552;1264;97949;-81
2023/05/09 05:56:13;;;;;;;22.80;11.90;;;;;;;6.65;66.22;100212.32;104399;1265;112169;-82
2023/05/09 05:58:40;;;;;;;24.90;12.10;;;;;;;6.74;66.04;100210.55;104860;1265;97948;-89
2023/05/09 06:01:08;;;;;;;24.60;11.90;;;;;;;6.81;66.08;100214.00;104506;1264;107272;-85
2023/05/09 06:03:37;;;;;;;25.90;11.20;;;;;;;6.90;65.90;100210.65;104549;1265;99308;-86
2023/05/09 06:06:05;;;;;;;21.70;10.70;;;;;;;7.00;65.99;100214.32;104532;1281;98050;-88
2023/05/09 06:08:33;;;;;;;28.70;12.20;;;;;;;7.08;66.23;100213.64;104579;1264;110208;-87
2023/05/09 06:11:00;;;;;;;24.10;11.30;;;;;;;7.17;66.18;100214.16;104685;1271;98074;-90
2023/05/09 06:13:28;;;;;;;25.60;11.00;;;;;;;7.26;66.06;100212.92;104611;1269;107939;-88
2023/05/09 06:15:56;;;;;;;24.40;10.70;;;;;;;7.34;65.89;100206.45;104511;1268;98022;-89
2023/05/09 06:19:08;;;;;;;21.30;9.20;;;;;;;7.42;66.00;100208.23;104552;1265;97963;-90
2023/05/09 06:21:36;;;;;;;20.80;9.50;;;;;;;7.56;66.28;100207.12;104534;1267;112510;-88
2023/05/09 06:24:04;;;;;;;20.70;8.80;;;;;;;7.69;66.08;100207.66;104613;1268;98058;-89
2023/05/09 06:26:44;;;;;;;19.80;8.80;;;;;;;7.79;65.97;100210.73;104666;1268;107805;-89
2023/05/09 06:29:14;;;;;;;19.40;9.00;;;;;;;7.88;66.01;100209.30;104699;1267;97958;-89
2023/05/09 06:31:41;;;;;;;27.40;9.00;;;;;;;7.98;66.05;100208.50;104621;1268;98009;-89
2023/05/09 06:34:09;;;;;;;19.70;7.50;;;;;;;8.07;66.02;100205.48;104745;1267;110386;-91
2023/05/09 06:36:37;;;;;;;18.70;8.40;;;;;;;8.16;65.91;100203.66;104735;1264;99205;-90
2023/05/09 06:39:06;;;;;;;17.70;7.40;;;;;;;8.25;65.96;100205.20;104757;1267;108805;-89
2023/05/09 06:42:11;;;;;;;16.50;6.50;;;;;;;8.36;65.87;100204.03;104521;1268;98003;-88
2023/05/09 06:45:29;;;;;;;16.40;7.10;;;;;;;8.44;65.75;100200.80;104972;1268;98305;-87
2023/05/09 06:52:20;;;;;;;17.40;6.70;;;;;;;8.68;65.82;100204.35;104635;1268;98432;-88
2023/05/09 06:54:48;;;;;;;16.60;6.60;;;;;;;8.74;65.33;100202.86;104634;1267;107766;-89
2023/05/09 06:57:16;;;;;;;16.70;7.00;;;;;;;8.80;65.54;100199.05;104840;1268;97937;-89
2023/05/09 06:59:44;;;;;;;16.60;6.70;;;;;;;8.88;65.35;100199.73;104772;1268;97953;-92
2023/05/09 07:02:12;;;;;;;18.40;7.20;;;;;;;8.94;65.47;100203.13;104690;1267;110964;-91
2023/05/09 07:04:40;;;;;;;14.10;6.30;;;;;;;9.00;65.47;100200.05;104650;1271;97968;-90
2023/05/09 07:07:08;;;;;;;16.70;6.80;;;;;;;9.05;65.36;100201.03;104765;1267;107661;-91
2023/05/09 07:09:36;;;;;;;14.70;6.80;;;;;;;9.11;65.35;100194.38;104667;1268;98028;-82
2023/05/09 07:12:04;;;;;;;16.20;6.50;;;;;;;9.16;65.28;100191.11;104620;1264;97926;-85
2023/05/09 07:14:32;;;;;;;15.70;6.40;;;;;;;9.19;65.45;100187.59;104776;1266;111450;-90
2023/05/09 07:17:01;;;;;;;16.80;6.50;;;;;;;9.25;65.45;100187.15;104919;1268;97913;-91
2023/05/09 07:19:48;;;;;;;14.50;6.40;;;;;;;9.34;65.11;100186.17;104632;1264;107198;-90
2023/05/09 07:22:16;;;;;;;13.70;6.10;;;;;;;9.40;65.15;100184.45;104499;1268;97962;-86
2023/05/09 07:24:45;;;;;;;17.30;6.60;;;;;;;9.45;65.18;100182.27;104716;1267;97946;-85
2023/05/09 07:27:13;;;;;;;14.80;6.50;;;;;;;9.49;65.23;100175.54;104650;1268;112428;-87
2023/05/09 07:29:41;;;;;;;15.60;6.10;;;;;;;9.56;65.00;100175.54;104709;1266;97879;-86
2023/05/09 07:32:09;;;;;;;12.50;5.40;;;;;;;9.65;64.98;100175.79;104563;1266;107892;-87
2023/05/09 07:34:37;;;;;;;14.00;5.90;;;;;;;9.73;64.89;100173.47;105189;1268;98550;-83
2023/05/09 07:37:05;;;;;;;14.40;6.10;;;;;;;9.79;64.96;100175.04;106092;1264;97958;-83
2023/05/09 07:39:32;;;;;;;12.70;5.80;;;;;;;9.88;64.93;100177.63;104718;1265;110467;-83
2023/05/09 07:42:01;;;;;;;12.70;5.80;;;;;;;9.94;64.79;100171.46;104789;1266;97907;-82
2023/05/09 07:44:28;;;;;;;14.30;6.10;;;;;;;10.04;64.69;100168.46;104612;1266;106655;-82
2023/05/09 07:46:58;;;;;;;13.20;5.70;;;;;;;10.13;64.73;100166.77;104583;1268;98100;-83
2023/05/09 07:49:26;;;;;;;17.70;6.70;;;;;;;10.20;64.32;100162.50;104886;1264;97926;-86
2023/05/09 07:51:54;;;;;;;14.10;5.60;;;;;;;10.26;64.43;100159.69;104621;1268;111305;-85
2023/05/09 07:54:22;;;;;;;13.20;5.40;;;;;;;10.32;64.19;100157.44;104624;1268;98089;-85
2023/05/09 07:57:21;;;;;;;8.80;4.70;;;;;;;10.36;63.93;100153.27;104198;1273;109032;-88
2023/05/09 08:03:56;;;;;;;10.30;5.10;;;;;;;10.49;63.70;100146.04;104238;1268;98035;-89
2023/05/09 08:10:44;;;;;;;13.70;5.30;;;;;;;10.61;63.46;100144.02;104129;1274;98357;-88
2023/05/09 08:21:56;;;;;;;11.70;5.00;;;;;;;10.80;62.44;100142.77;104711;1273;98173;-93
2023/05/09 08:39:44;;;;;;;13.40;5.10;;;;;;;11.14;61.85;100135.30;106926;1258;98018;-85
2023/05/09 08:42:14;;;;;;;10.10;4.70;;;;;;;11.22;61.65;100125.29;106762;1262;111281;-89
2023/05/09 08:44:43;;;;;;;10.40;5.30;;;;;;;11.29;61.78;100133.38;104800;1266;98005;-88
2023/05/09 08:47:12;;;;;;;14.90;5.60;;;;;;;11.31;61.37;100127.58;104622;1263;106513;-92
2023/05/09 08:49:40;;;;;;;11.10;4.80;;;;;;;11.32;61.68;100122.54;105191;1265;97974;-91
2023/05/09 08:55:25;;;;;;;9.10;4.80;;;;;;;11.40;60.93;100116.05;108828;1254;110911;31
2023/05/09 08:57:53;;;;;;;12.20;5.10;;;;;;;11.45;60.57;100112.95;105583;1268;97888;-94
2023/05/09 09:00:25;;;;;;;12.10;5.40;;;;;;;11.49;60.94;100111.09;105427;1270;108551;-93
2023/05/09 09:02:53;;;;;;;14.20;5.70;;;;;;;11.55;60.51;100108.44;104673;1268;97957;-92
2023/05/09 09:05:22;;;;;;;12.20;5.30;;;;;;;11.59;60.51;100108.16;104763;1268;98775;-88
2023/05/09 09:08:08;;;;;;;14.00;5.20;;;;;;;11.63;61.02;100103.48;104745;1268;110851;-90
2023/05/09 09:10:42;;;;;;;10.40;5.10;;;;;;;11.70;60.89;100108.02;104626;1268;98076;-91
2023/05/09 09:13:11;;;;;;;10.20;4.90;;;;;;;11.72;60.35;100103.49;104627;1280;107856;-88
2023/05/09 09:15:42;;;;;;;12.60;4.70;;;;;;;11.73;59.81;100101.83;104727;1280;97966;-89
2023/05/09 09:18:15;;;;;;;12.80;5.40;;;;;;;11.76;60.38;100098.42;104506;1268;99214;-86
2023/05/09 09:21:05;;;;;;;11.40;4.70;;;;;;;11.84;59.79;100099.92;104639;1264;109838;-87
2023/05/09 09:23:33;;;;;;;11.30;4.70;;;;;;;11.91;58.59;100107.84;104631;1264;98030;-87
2023/05/09 09:26:05;;;;;;;12.40;4.90;;;;;;;11.94;59.23;100106.45;104688;1263;108874;-85
2023/05/09 09:28:33;;;;;;;10.30;4.60;;;;;;;11.97;59.33;100105.52;104722;1268;98093;-84
2023/05/09 09:31:21;;;;;;;11.80;5.00;;;;;;;12.02;59.07;100102.20;104680;1265;97912;-86
2023/05/09 09:33:50;;;;;;;9.10;4.30;;;;;;;12.05;58.99;100106.67;104648;1268;111737;-89
2023/05/09 09:36:28;;;;;;;11.50;4.80;;;;;;;12.03;59.13;100105.52;104623;1266;98896;-88
2023/05/09 09:39:01;;;;;;;12.30;5.10;;;;;;;12.14;58.99;100101.12;104668;1268;108625;-85
2023/05/09 09:41:34;;;;;;;17.90;5.60;;;;;;;12.27;58.54;100098.55;104722;1266;99279;-86
2023/05/09 09:44:16;;;;;;;15.70;5.00;;;;;;;12.32;58.88;100099.69;104679;1264;97963;-80
2023/05/09 09:46:49;;;;;;;13.10;4.80;;;;;;;12.45;58.22;100099.04;104569;1268;110533;-80
2023/05/09 09:49:22;;;;;;;9.10;4.40;;;;;;;12.50;58.73;100095.98;104420;1274;98883;-80
2023/05/09 09:51:55;;;;;;;13.80;4.80;;;;;;;12.56;58.00;100097.23;104666;1265;108923;-81
2023/05/09 09:54:28;;;;;;;14.70;4.80;;;;;;;12.65;57.78;100094.90;104758;1268;99298;-83
2023/05/09 09:56:55;;;;;;;8.90;4.60;;;;;;;12.74;57.93;100085.57;104645;1263;98917;-89
2023/05/09 09:59:25;;;;;;;9.00;4.50;;;;;;;12.86;58.15;100086.91;104587;1271;111376;-88
2023/05/09 10:02:05;;;;;;;10.40;4.80;;;;;;;12.94;57.73;100088.39;104901;1266;97958;-87
2023/05/09 10:04:40;;;;;;;13.00;5.30;;;;;;;12.99;57.78;100085.58;104617;1265;106930;-86
2023/05/09 10:07:09;;;;;;;;;;;;;;;12.99;57.56;100090.39;104988;1266;97973;-87
2023/05/09 10:09:42;;;;;;;11.20;4.70;;;;;;;12.94;57.48;100085.89;104829;1265;97979;-86
2023/05/09 10:12:13;;;;;;;9.90;4.70;;;;;;;12.91;57.74;100081.09;104806;1265;110366;-87
2023/05/09 10:14:42;;;;;;;6.70;3.80;;;;;;;12.93;57.63;100081.11;104816;1268;98087;-87
2023/05/09 10:17:13;;;;;;;10.50;4.80;;;;;;;12.94;57.47;100076.96;104968;1269;108743;-86
2023/05/09 10:19:44;;;;;;;10.50;4.40;;;;;;;12.89;56.78;100073.04;104787;1264;97974;-86
2023/05/09 10:22:18;;;;;;;10.90;4.60;;;;;;;12.95;57.15;100068.55;104885;1267;97946;-88
2023/05/09 10:24:53;;;;;;;6.50;3.80;;;;;;;13.14;56.27;100058.41;105023;1265;111235;-93
2023/05/09 10:27:26;;;;;;;12.50;4.30;;;;;;;13.33;56.98;100054.27;105299;1268;98129;-93
2023/05/09 10:30:12;;;;;;;11.60;4.20;;;;;;;13.40;55.98;100062.16;104776;1266;107186;-85
2023/05/09 10:32:53;;;;;;;8.90;4.10;;;;;;;13.43;56.06;100062.88;104929;1276;97954;-87
2023/05/09 10:35:29;;;;;;;11.80;4.40;;;;;;;13.42;55.61;100058.52;104814;1264;98054;-88
2023/05/09 10:38:00;;;;;;;9.20;4.40;;;;;;;13.38;56.09;100056.02;104664;1279;111069;-85
2023/05/09 10:40:31;;;;;;;12.90;5.00;;;;;;;13.36;55.85;100051.88;104909;1269;97968;-85
2023/05/09 10:43:01;;;;;;;8.20;3.80;;;;;;;13.33;55.95;100045.38;104847;1263;107659;-83
2023/05/09 10:45:30;;;;;;;13.00;3.90;;;;;;;13.28;55.95;100050.88;104626;1265;98038;-85
2023/05/09 10:48:02;;;;;;;7.50;3.60;;;;;;;13.22;54.95;100054.10;104719;1263;97952;-86
2023/05/09 10:50:30;;;;;;;11.80;3.80;;;;;;;13.26;55.20;100048.14;104627;1268;111581;-87
2023/05/09 10:53:09;;;;;;;9.40;3.50;;;;;;;13.28;55.37;100040.15;104713;1267;97952;-86
2023/05/09 10:55:59;;;;;;;7.60;3.80;;;;;;;13.35;54.74;100030.77;104590;1268;107133;-84
2023/05/09 10:58:28;;;;;;;8.50;3.50;;;;;;;13.41;55.02;100042.32;104885;1267;98895;-84
2023/05/09 11:00:58;;;;;;;8.90;3.80;;;;;;;13.49;54.97;100041.09;104796;1264;98101;-85
2023/05/09 11:03:28;;;;;;;14.90;4.20;;;;;;;13.54;54.32;100032.14;104699;1264;111433;-84
2023/05/09 11:05:58;;;;;;;10.20;3.80;;;;;;;13.55;54.62;100039.80;104642;1266;97969;-86
2023/05/09 11:08:29;;;;;;;10.40;4.30;;;;;;;13.56;54.48;100034.53;104724;1264;107913;-82
2023/05/09 11:11:04;;;;;;;7.10;3.30;;;;;;;13.50;54.33;100039.36;105382;1262;97936;-86
2023/05/09 11:13:39;;;;;;;8.30;3.70;;;;;;;13.46;54.42;100031.66;104641;1271;97998;-84
2023/05/09 11:16:09;;;;;;;7.00;3.80;;;;;;;13.41;53.80;100032.17;105028;1268;110465;-91
2023/05/09 11:18:50;;;;;;;8.70;3.30;;;;;;;13.36;54.37;100021.85;105686;1270;98135;-89
2023/05/09 11:21:19;;;;;;;5.80;3.20;;;;;;;13.37;54.20;100020.98;105353;1266;106921;-90
2023/05/09 11:23:48;;;;;;;7.00;3.30;;;;;;;13.37;53.76;100021.20;104713;1263;97996;-88
2023/05/09 11:26:22;;;;;;;6.50;3.40;;;;;;;13.31;53.76;100013.80;105014;1266;99156;-87
2023/05/09 11:28:52;;;;;;;7.50;3.40;;;;;;;13.26;52.57;100011.95;104888;1268;110496;-90
2023/05/09 11:31:20;;;;;;;5.30;3.20;;;;;;;13.20;52.99;100011.86;104896;1266;97957;-89
2023/05/09 11:33:53;;;;;;;8.10;3.10;;;;;;;13.12;53.53;100011.55;105212;1263;107965;-83
2023/05/09 11:36:33;;;;;;;8.30;3.10;;;;;;;13.11;53.69;100001.94;105504;1266;99209;-85
2023/05/09 11:39:07;;;;;;;10.80;3.80;;;;;;;13.26;53.38;100007.70;104742;1268;97951;-80
2023/05/09 11:41:48;;;;;;;8.00;3.40;;;;;;;13.40;53.47;100004.11;105106;1267;111512;-80
2023/05/09 11:44:18;;;;;;;7.40;3.00;;;;;;;13.51;53.55;100000.48;104426;1269;157879;-79
2023/05/09 11:46:48;;;;;;;6.70;3.70;;;;;;;13.65;53.25;99989.73;104530;1265;107753;-79
2023/05/09 11:49:18;;;;;;;6.70;3.20;;;;;;;13.80;53.10;99976.86;104659;1265;98043;-79
2023/05/09 11:51:46;;;;;;;6.50;3.40;;;;;;;13.92;52.94;99982.67;104755;1266;97941;-79
2023/05/09 11:54:13;;;;;;;8.90;3.60;;;;;;;13.98;52.39;99980.79;106980;1262;110736;-81
2023/05/09 11:56:42;;;;;;;9.20;3.70;;;;;;;14.01;52.63;99982.73;106045;1266;97835;-83
2023/05/09 11:59:13;;;;;;;6.80;2.90;;;;;;;14.03;52.68;99978.10;105661;1265;106561;-88
2023/05/09 12:01:41;;;;;;;5.90;3.10;;;;;;;14.00;52.34;99970.52;105209;1267;99382;-84
2023/05/09 12:04:09;;;;;;;10.20;3.70;;;;;;;13.89;52.26;99970.94;104989;1267;98005;-85